Time;durP1;ratioP1;P1;durP2;ratioP2;P2;SDS_P1;SDS_P2;PMS_P1;PMS_P2;Temp;Humidity;BMP_temperature;BMP_pressure;BME280_temperature;BME280_humidity;BME280_pressure;Samples;Min_cycle;Max_cycle;Signal;HPM_P1;HPM_P2
2021/05/21 00:00:02;;;;;;;5.30;4.80;;;;;;;;;;5097779;22;20490;-61
2021/05/21 00:02:29;;;;;;;5.60;5.00;;;;;;;;;;5073435;28;20524;-61
2021/05/21 00:04:55;;;;;;;5.13;4.40;;;;;;;;;;5073059;28;20968;-61
2021/05/21 00:07:23;;;;;;;5.30;4.80;;;;;;;;;;5073216;28;20497;-61
2021/05/21 00:09:50;;;;;;;6.00;4.50;;;;;;;;;;5073243;28;20483;-61
2021/05/21 00:12:17;;;;;;;5.00;4.23;;;;;;;;;;5073013;28;20451;-61
2021/05/21 00:14:43;;;;;;;6.20;4.17;;;;;;;;;;5073279;28;20439;-60
2021/05/21 00:17:10;;;;;;;5.33;4.00;;;;;;;;;;5073253;28;20450;-61
2021/05/21 00:19:37;;;;;;;3.70;3.10;;;;;;;;;;5073466;28;20483;-61
2021/05/21 00:22:04;;;;;;;4.57;3.50;;;;;;;;;;5073916;28;20451;-61
2021/05/21 00:24:31;;;;;;;3.77;3.47;;;;;;;;;;5078191;28;20444;-61
2021/05/21 00:26:58;;;;;;;4.93;3.30;;;;;;;;;;5077567;28;20947;-61
2021/05/21 00:29:25;;;;;;;6.57;4.23;;;;;;;;;;5076809;28;20479;-61
2021/05/21 00:31:51;;;;;;;4.80;3.47;;;;;;;;;;5077156;28;20500;-61
2021/05/21 00:34:18;;;;;;;3.60;3.30;;;;;;;;;;5077218;28;20439;-61
2021/05/21 00:36:45;;;;;;;3.53;3.23;;;;;;;;;;5077112;28;20469;-61
2021/05/21 00:39:12;;;;;;;11.27;9.60;;;;;;;;;;5077144;28;20459;-62
2021/05/21 00:41:39;;;;;;;5.93;3.90;;;;;;;;;;5076947;28;20447;-61
2021/05/21 00:44:06;;;;;;;2.67;2.47;;;;;;;;;;5076922;28;20473;-61
2021/05/21 00:46:33;;;;;;;2.87;2.00;;;;;;;;;;5077683;28;20442;-61
2021/05/21 00:49:00;;;;;;;2.80;2.60;;;;;;;;;;5076693;28;20484;-61
2021/05/21 00:51:26;;;;;;;2.63;2.40;;;;;;;;;;5076789;28;20455;-61
2021/05/21 00:53:54;;;;;;;3.37;2.53;;;;;;;;;;5076687;28;20444;-61
2021/05/21 00:56:20;;;;;;;2.67;2.40;;;;;;;;;;5076735;28;20451;-61
2021/05/21 00:58:48;;;;;;;2.23;2.03;;;;;;;;;;5076666;28;20510;-61
2021/05/21 01:01:15;;;;;;;2.40;2.20;;;;;;;;;;5076602;28;20900;-61
2021/05/21 01:03:42;;;;;;;3.17;2.87;;;;;;;;;;5076686;28;20440;-61
2021/05/21 01:06:09;;;;;;;2.53;2.33;;;;;;;;;;5076672;28;20449;-61
2021/05/21 01:08:35;;;;;;;2.40;2.20;;;;;;;;;;5076235;28;20539;-61
2021/05/21 01:11:02;;;;;;;3.17;2.50;;;;;;;;;;5076342;28;20444;-61
2021/05/21 01:13:29;;;;;;;3.40;2.23;;;;;;;;;;5076572;28;20445;-61
2021/05/21 01:15:57;;;;;;;2.67;2.47;;;;;;;;;;5076551;28;20797;-61
2021/05/21 01:18:23;;;;;;;8.00;2.50;;;;;;;;;;5076395;28;20445;-62
2021/05/21 01:20:51;;;;;;;2.80;2.40;;;;;;;;;;5076237;28;20450;-61
2021/05/21 01:23:18;;;;;;;2.33;2.13;;;;;;;;;;5076185;28;20451;-61
2021/05/21 01:25:45;;;;;;;3.30;2.10;;;;;;;;;;5075871;28;20902;-61
2021/05/21 01:28:14;;;;;;;2.40;2.20;;;;;;;;;;5075717;28;20985;-62
2021/05/21 01:30:41;;;;;;;2.93;2.37;;;;;;;;;;5075708;28;20452;-61
2021/05/21 01:33:09;;;;;;;2.70;1.87;;;;;;;;;;5075588;28;20940;-61
2021/05/21 01:35:36;;;;;;;2.43;2.10;;;;;;;;;;5075250;28;20939;-61
2021/05/21 01:38:04;;;;;;;2.33;2.00;;;;;;;;;;5076560;28;20452;-61
2021/05/21 01:40:30;;;;;;;2.40;1.93;;;;;;;;;;5075617;28;20460;-61
2021/05/21 01:42:58;;;;;;;2.17;1.97;;;;;;;;;;5076554;28;20451;-61
2021/05/21 01:45:24;;;;;;;1.90;1.80;;;;;;;;;;5080208;28;20435;-61
2021/05/21 01:47:51;;;;;;;2.07;1.87;;;;;;;;;;5079494;28;20985;-61
2021/05/21 01:50:18;;;;;;;5.30;2.43;;;;;;;;;;5079084;28;20468;-61
2021/05/21 01:52:45;;;;;;;2.50;2.30;;;;;;;;;;5079380;28;20438;-61
2021/05/21 01:55:13;;;;;;;1.90;1.57;;;;;;;;;;5077685;28;20437;-61
2021/05/21 01:57:41;;;;;;;3.30;2.00;;;;;;;;;;5075723;28;20466;-61
2021/05/21 02:00:09;;;;;;;1.87;1.77;;;;;;;;;;5075386;28;20480;-61
2021/05/21 02:02:37;;;;;;;2.20;1.90;;;;;;;;;;5076555;28;20441;-61
2021/05/21 02:05:04;;;;;;;1.97;1.87;;;;;;;;;;5080038;28;20461;-61
2021/05/21 02:07:30;;;;;;;1.80;1.53;;;;;;;;;;5075895;28;20446;-61
2021/05/21 02:09:58;;;;;;;3.20;1.53;;;;;;;;;;5075326;28;20488;-61
2021/05/21 02:12:26;;;;;;;1.70;1.60;;;;;;;;;;5075342;28;20448;-61
2021/05/21 02:14:53;;;;;;;2.10;1.60;;;;;;;;;;5075320;28;20474;-61
2021/05/21 02:17:20;;;;;;;3.10;1.57;;;;;;;;;;5075670;28;20499;-61
2021/05/21 02:19:47;;;;;;;2.13;1.97;;;;;;;;;;5074786;28;20463;-61
2021/05/21 02:22:17;;;;;;;3.07;2.00;;;;;;;;;;5075031;28;20444;-61
2021/05/21 02:24:44;;;;;;;3.00;2.00;;;;;;;;;;5075045;28;20498;-61
2021/05/21 02:27:11;;;;;;;4.37;1.73;;;;;;;;;;5075065;28;20443;-61
2021/05/21 02:29:39;;;;;;;2.27;1.70;;;;;;;;;;5074816;28;20928;-61
2021/05/21 02:32:06;;;;;;;1.60;1.50;;;;;;;;;;5074601;28;20444;-61
2021/05/21 02:34:32;;;;;;;2.13;1.60;;;;;;;;;;5074586;28;20449;-61
2021/05/21 02:36:59;;;;;;;2.03;1.60;;;;;;;;;;5074875;28;20445;-61
2021/05/21 02:39:26;;;;;;;2.47;1.77;;;;;;;;;;5074351;28;20838;-61
2021/05/21 02:41:53;;;;;;;2.00;1.80;;;;;;;;;;5074704;28;20457;-61
2021/05/21 02:44:20;;;;;;;1.70;1.57;;;;;;;;;;5074648;28;20468;-61
2021/05/21 02:46:47;;;;;;;2.10;1.90;;;;;;;;;;5073221;28;20964;-61
2021/05/21 02:49:19;;;;;;;2.70;1.90;;;;;;;;;;5074394;28;20488;-61
2021/05/21 02:51:46;;;;;;;1.93;1.73;;;;;;;;;;5074862;28;20451;-61
2021/05/21 02:54:12;;;;;;;2.70;1.70;;;;;;;;;;5074537;28;20456;-61
2021/05/21 02:56:39;;;;;;;3.00;2.07;;;;;;;;;;5074398;28;20448;-61
2021/05/21 02:59:06;;;;;;;3.30;2.10;;;;;;;;;;5074115;28;20477;-61
2021/05/21 03:01:33;;;;;;;2.57;2.13;;;;;;;;;;5073991;28;20941;-61
2021/05/21 03:04:00;;;;;;;2.10;1.90;;;;;;;;;;5074136;28;20495;-60
2021/05/21 03:06:27;;;;;;;3.30;2.00;;;;;;;;;;5074178;28;20456;-60
2021/05/21 03:08:54;;;;;;;2.27;2.00;;;;;;;;;;5074088;28;20479;-61
2021/05/21 03:11:21;;;;;;;2.83;1.73;;;;;;;;;;5074178;28;20513;-61
2021/05/21 03:13:47;;;;;;;5.63;2.33;;;;;;;;;;5073650;28;20937;-61
2021/05/21 03:16:14;;;;;;;2.53;2.00;;;;;;;;;;5073741;28;20445;-61
2021/05/21 03:18:41;;;;;;;8.47;6.87;;;;;;;;;;5073568;28;20473;-61
2021/05/21 03:21:09;;;;;;;2.50;1.80;;;;;;;;;;5074153;28;20931;-61
2021/05/21 03:23:36;;;;;;;2.40;2.00;;;;;;;;;;5074472;28;20448;-62
2021/05/21 03:26:03;;;;;;;3.00;2.00;;;;;;;;;;5074129;28;20449;-61
2021/05/21 03:28:29;;;;;;;4.20;2.13;;;;;;;;;;5073547;28;20477;-60
2021/05/21 03:30:56;;;;;;;2.20;1.80;;;;;;;;;;5073883;28;20445;-60
2021/05/21 03:33:23;;;;;;;2.70;1.97;;;;;;;;;;5074050;28;20440;-62
2021/05/21 03:35:49;;;;;;;2.30;1.90;;;;;;;;;;5073750;28;20440;-62
2021/05/21 03:38:17;;;;;;;2.50;1.77;;;;;;;;;;5073708;28;20865;-62
2021/05/21 03:40:44;;;;;;;2.57;1.80;;;;;;;;;;5073724;28;20497;-61
2021/05/21 03:43:11;;;;;;;2.93;1.77;;;;;;;;;;5073621;28;20445;-60
2021/05/21 03:45:37;;;;;;;2.53;1.67;;;;;;;;;;5074423;28;20832;-61
2021/05/21 03:48:05;;;;;;;2.17;1.73;;;;;;;;;;5073928;28;20450;-61
2021/05/21 03:50:32;;;;;;;1.80;1.70;;;;;;;;;;5073746;28;20521;-61
2021/05/21 03:52:58;;;;;;;1.90;1.70;;;;;;;;;;5074408;28;20966;-61
2021/05/21 03:55:26;;;;;;;1.70;1.60;;;;;;;;;;5073796;28;20505;-61
2021/05/21 03:57:53;;;;;;;1.83;1.43;;;;;;;;;;5073000;28;20441;-61
2021/05/21 04:00:20;;;;;;;1.97;1.77;;;;;;;;;;5072694;28;20489;-61
2021/05/21 04:02:49;;;;;;;3.23;2.00;;;;;;;;;;5073403;28;20449;-62
2021/05/21 04:08:09;;;;;;;1.70;1.60;;;;;;;;;;5112492;27;20537;-62
2021/05/21 04:10:36;;;;;;;2.50;1.70;;;;;;;;;;5111962;28;20836;-62
2021/05/21 04:13:03;;;;;;;2.43;1.50;;;;;;;;;;5111812;28;20451;-61
2021/05/21 04:15:30;;;;;;;2.73;1.80;;;;;;;;;;5112134;28;20446;-62
2021/05/21 04:17:56;;;;;;;1.93;1.80;;;;;;;;;;5111767;28;20444;-62
2021/05/21 04:20:23;;;;;;;3.20;1.80;;;;;;;;;;5111407;28;20463;-60
2021/05/21 04:22:50;;;;;;;2.50;1.83;;;;;;;;;;5111186;28;20472;-61
2021/05/21 04:25:17;;;;;;;1.80;1.43;;;;;;;;;;5110477;28;20955;-62
2021/05/21 04:27:44;;;;;;;4.43;2.53;;;;;;;;;;5111131;28;20484;-62
2021/05/21 04:30:11;;;;;;;1.70;1.60;;;;;;;;;;5111344;28;20541;-62
2021/05/21 04:32:38;;;;;;;3.33;1.73;;;;;;;;;;5111403;28;20494;-62
2021/05/21 04:35:05;;;;;;;3.43;1.83;;;;;;;;;;5111363;28;20502;-61
2021/05/21 04:37:32;;;;;;;5.43;1.90;;;;;;;;;;5111474;28;20438;-62
2021/05/21 04:39:59;;;;;;;2.43;2.00;;;;;;;;;;5111620;28;20465;-61
2021/05/21 04:42:26;;;;;;;2.63;1.90;;;;;;;;;;5111346;28;20440;-61
2021/05/21 04:44:53;;;;;;;1.90;1.50;;;;;;;;;;5110929;28;20551;-61
2021/05/21 04:47:20;;;;;;;4.70;1.97;;;;;;;;;;5110902;28;20476;-61
2021/05/21 04:49:46;;;;;;;3.30;2.13;;;;;;;;;;5111866;28;20812;-61
2021/05/21 04:52:13;;;;;;;2.30;1.57;;;;;;;;;;5110702;28;20457;-60
2021/05/21 04:54:40;;;;;;;1.90;1.63;;;;;;;;;;5110438;28;20449;-61
2021/05/21 04:57:07;;;;;;;2.60;2.03;;;;;;;;;;5110548;28;20502;-61
2021/05/21 04:59:35;;;;;;;2.17;1.90;;;;;;;;;;5110744;28;20534;-62
2021/05/21 05:02:03;;;;;;;2.83;1.53;;;;;;;;;;5110405;28;20445;-61
2021/05/21 05:04:29;;;;;;;2.50;1.83;;;;;;;;;;5110506;28;20444;-60
2021/05/21 05:06:56;;;;;;;2.23;2.03;;;;;;;;;;5109822;28;20609;-61
2021/05/21 05:09:23;;;;;;;3.00;1.90;;;;;;;;;;5109782;28;20969;-61
2021/05/21 05:11:50;;;;;;;1.80;1.70;;;;;;;;;;5109665;28;20430;-61
2021/05/21 05:14:16;;;;;;;3.40;1.50;;;;;;;;;;5110175;28;20449;-61
2021/05/21 05:16:44;;;;;;;2.27;2.00;;;;;;;;;;5110009;28;20878;-61
2021/05/21 05:19:11;;;;;;;2.27;1.67;;;;;;;;;;5099581;28;20488;-61
2021/05/21 05:21:39;;;;;;;6.03;2.00;;;;;;;;;;5096086;28;20443;-61
2021/05/21 05:24:06;;;;;;;2.00;1.67;;;;;;;;;;5100497;28;20457;-61
2021/05/21 05:26:33;;;;;;;1.40;1.30;;;;;;;;;;5105187;28;20474;-61
2021/05/21 05:29:00;;;;;;;1.67;1.57;;;;;;;;;;5096450;28;20458;-61
2021/05/21 05:31:27;;;;;;;3.10;2.00;;;;;;;;;;5096301;28;20446;-61
2021/05/21 05:33:54;;;;;;;1.63;1.53;;;;;;;;;;5095957;28;20446;-62
2021/05/21 05:36:21;;;;;;;1.93;1.80;;;;;;;;;;5095808;28;20443;-62
2021/05/21 05:38:48;;;;;;;3.27;1.77;;;;;;;;;;5095661;28;20457;-62
2021/05/21 05:41:15;;;;;;;2.77;1.80;;;;;;;;;;5095722;28;20449;-62
2021/05/21 05:43:41;;;;;;;2.23;1.50;;;;;;;;;;5096286;28;20448;-62
2021/05/21 05:46:09;;;;;;;4.53;1.60;;;;;;;;;;5096393;28;20492;-62
2021/05/21 05:48:36;;;;;;;1.57;1.47;;;;;;;;;;5095423;28;20501;-61
2021/05/21 05:51:04;;;;;;;2.03;1.43;;;;;;;;;;5096835;28;20450;-61
2021/05/21 05:53:34;;;;;;;2.37;1.80;;;;;;;;;;5096009;28;20451;-62
2021/05/21 05:56:00;;;;;;;1.77;1.50;;;;;;;;;;5096197;28;21045;-62
2021/05/21 06:01:02;;;;;;;1.70;1.60;;;;;;;;;;5063950;22;20954;-59
2021/05/21 06:03:29;;;;;;;2.27;1.37;;;;;;;;;;5035623;28;20444;-60
2021/05/21 06:05:56;;;;;;;1.93;1.83;;;;;;;;;;5034725;28;20444;-61
2021/05/21 06:08:23;;;;;;;4.03;1.40;;;;;;;;;;5034827;28;20459;-59
2021/05/21 06:10:51;;;;;;;3.23;1.50;;;;;;;;;;5034648;28;20499;-60
2021/05/21 06:13:18;;;;;;;3.00;1.50;;;;;;;;;;5034784;28;20544;-60
2021/05/21 06:15:45;;;;;;;2.80;1.70;;;;;;;;;;5035570;28;20503;-59
2021/05/21 06:18:11;;;;;;;2.07;1.27;;;;;;;;;;5035204;28;20501;-60
2021/05/21 06:20:38;;;;;;;2.07;1.93;;;;;;;;;;5034697;28;20837;-59
2021/05/21 06:23:05;;;;;;;2.60;1.30;;;;;;;;;;5034733;28;20792;-60
2021/05/21 06:25:52;;;;;;;1.40;1.30;;;;;;;;;;5035085;28;20534;-60
2021/05/21 06:28:22;;;;;;;2.10;1.50;;;;;;;;;;5034579;28;20423;-60
2021/05/21 06:30:49;;;;;;;3.17;1.70;;;;;;;;;;5033502;28;20467;-60
2021/05/21 06:33:16;;;;;;;2.30;1.57;;;;;;;;;;5034599;28;20500;-60
2021/05/21 06:35:42;;;;;;;1.87;1.37;;;;;;;;;;5034380;28;20455;-60
2021/05/21 06:38:09;;;;;;;2.57;1.87;;;;;;;;;;5034290;28;20465;-60
2021/05/21 06:40:37;;;;;;;2.20;1.83;;;;;;;;;;5034690;28;20890;-60
2021/05/21 06:43:07;;;;;;;1.77;1.50;;;;;;;;;;5034017;28;20489;-61
2021/05/21 06:45:34;;;;;;;2.40;1.50;;;;;;;;;;5034111;28;20463;-61
2021/05/21 06:48:01;;;;;;;4.03;1.50;;;;;;;;;;5034317;28;20481;-60
2021/05/21 06:50:28;;;;;;;2.50;1.50;;;;;;;;;;5034948;28;20470;-59
2021/05/21 06:52:54;;;;;;;1.60;1.40;;;;;;;;;;5034461;28;20450;-60
2021/05/21 06:55:21;;;;;;;2.00;1.10;;;;;;;;;;5033650;28;20482;-59
2021/05/21 06:57:49;;;;;;;1.90;1.40;;;;;;;;;;5033542;28;20446;-60
2021/05/21 07:00:16;;;;;;;2.07;1.57;;;;;;;;;;5033364;28;20848;-60
2021/05/21 07:02:43;;;;;;;1.70;1.53;;;;;;;;;;5033600;28;20814;-60
2021/05/21 07:05:12;;;;;;;4.10;1.30;;;;;;;;;;5033493;28;20451;-61
2021/05/21 07:07:39;;;;;;;1.97;1.47;;;;;;;;;;5033782;28;20593;-60
2021/05/21 07:10:06;;;;;;;3.20;1.30;;;;;;;;;;5033767;28;21011;-60
2021/05/21 07:12:33;;;;;;;1.50;1.30;;;;;;;;;;5033665;28;20448;-59
2021/05/21 07:15:01;;;;;;;2.70;1.13;;;;;;;;;;5033445;28;20509;-58
2021/05/21 07:17:28;;;;;;;2.37;1.20;;;;;;;;;;5033705;28;20446;-59
2021/05/21 07:19:54;;;;;;;2.37;1.03;;;;;;;;;;5033654;28;21063;-60
2021/05/21 07:22:21;;;;;;;1.53;1.00;;;;;;;;;;5034129;28;20452;-60
2021/05/21 07:24:48;;;;;;;1.70;1.20;;;;;;;;;;5033311;28;20445;-60
2021/05/21 07:27:15;;;;;;;3.87;1.50;;;;;;;;;;5033436;28;20845;-60
2021/05/21 07:29:41;;;;;;;2.40;1.70;;;;;;;;;;5033198;28;20473;-59
2021/05/21 07:32:09;;;;;;;2.17;1.13;;;;;;;;;;5033316;28;20448;-60
2021/05/21 07:34:36;;;;;;;2.30;1.30;;;;;;;;;;5033405;28;20454;-62
2021/05/21 07:37:03;;;;;;;1.50;0.87;;;;;;;;;;5033063;28;20450;-61
2021/05/21 07:39:30;;;;;;;3.40;1.40;;;;;;;;;;5033123;28;20835;-60
2021/05/21 07:41:58;;;;;;;2.30;1.53;;;;;;;;;;5032936;28;20446;-60
2021/05/21 07:44:25;;;;;;;1.70;1.03;;;;;;;;;;5033191;28;20454;-59
2021/05/21 07:46:52;;;;;;;2.80;1.37;;;;;;;;;;5033190;28;20468;-59
2021/05/21 07:49:22;;;;;;;4.20;1.40;;;;;;;;;;5033185;28;20832;-59
2021/05/21 07:51:50;;;;;;;1.90;1.10;;;;;;;;;;5032988;28;20905;-60
2021/05/21 07:54:17;;;;;;;3.30;1.20;;;;;;;;;;5033373;28;20461;-60
2021/05/21 07:56:44;;;;;;;4.10;1.30;;;;;;;;;;5033176;28;20501;-61
2021/05/21 07:59:12;;;;;;;4.57;1.33;;;;;;;;;;5032827;28;20989;-60
2021/05/21 08:01:39;;;;;;;4.70;1.40;;;;;;;;;;5033486;28;20522;-60
2021/05/21 08:04:06;;;;;;;3.40;1.73;;;;;;;;;;5032838;28;20950;-60
2021/05/21 08:06:34;;;;;;;2.00;1.50;;;;;;;;;;5032973;28;20469;-60
2021/05/21 08:09:04;;;;;;;4.97;1.40;;;;;;;;;;5033409;28;20832;-60
2021/05/21 08:11:31;;;;;;;2.43;1.30;;;;;;;;;;5033386;28;20456;-60
2021/05/21 08:13:57;;;;;;;4.00;1.83;;;;;;;;;;5033503;28;20490;-60
2021/05/21 08:16:24;;;;;;;1.50;1.30;;;;;;;;;;5033447;28;20496;-59
2021/05/21 08:18:51;;;;;;;5.30;1.87;;;;;;;;;;5033647;28;20455;-60
2021/05/21 08:21:18;;;;;;;3.00;1.33;;;;;;;;;;5033951;28;20448;-60
2021/05/21 08:23:45;;;;;;;2.07;1.37;;;;;;;;;;5034018;28;20858;-60
2021/05/21 08:26:12;;;;;;;3.33;1.40;;;;;;;;;;5034271;28;20451;-61
2021/05/21 08:28:40;;;;;;;2.83;1.27;;;;;;;;;;5033633;28;20449;-60
2021/05/21 08:31:07;;;;;;;4.00;1.43;;;;;;;;;;5032960;28;20546;-59
2021/05/21 08:33:38;;;;;;;2.43;1.30;;;;;;;;;;5034170;28;20463;-59
2021/05/21 08:36:07;;;;;;;3.73;1.53;;;;;;;;;;5033621;28;20468;-60
2021/05/21 08:38:33;;;;;;;2.00;1.33;;;;;;;;;;5034275;28;20478;-60
2021/05/21 08:41:02;;;;;;;5.53;1.50;;;;;;;;;;5033611;28;20920;-59
2021/05/21 08:43:31;;;;;;;2.73;1.27;;;;;;;;;;5033209;28;20450;-60
2021/05/21 08:45:58;;;;;;;5.60;1.30;;;;;;;;;;5032961;28;20521;-60
2021/05/21 08:48:25;;;;;;;4.10;1.60;;;;;;;;;;5032784;28;20487;-59
2021/05/21 08:50:52;;;;;;;3.90;1.30;;;;;;;;;;5032551;28;20469;-58
2021/05/21 08:53:19;;;;;;;4.87;1.50;;;;;;;;;;5033933;28;20936;-59
2021/05/21 08:55:45;;;;;;;2.13;1.33;;;;;;;;;;5036508;28;20468;-59
2021/05/21 08:58:13;;;;;;;1.67;1.30;;;;;;;;;;5036451;28;20447;-60
2021/05/21 09:00:41;;;;;;;2.57;1.40;;;;;;;;;;5035763;28;21013;-59
2021/05/21 09:03:18;;;;;;;2.20;1.27;;;;;;;;;;5035985;28;20452;-59
2021/05/21 09:06:00;;;;;;;3.23;1.40;;;;;;;;;;5036219;28;20807;-60
2021/05/21 09:08:34;;;;;;;2.97;1.30;;;;;;;;;;5035819;28;20498;-60
2021/05/21 09:11:01;;;;;;;3.47;1.37;;;;;;;;;;5036035;28;20473;-61
2021/05/21 09:13:34;;;;;;;3.10;1.43;;;;;;;;;;5035801;28;20460;-60
2021/05/21 09:16:16;;;;;;;3.87;1.70;;;;;;;;;;5036504;28;20802;-60
2021/05/21 09:18:58;;;;;;;3.43;1.70;;;;;;;;;;5035669;28;20440;-59
2021/05/21 09:21:24;;;;;;;4.73;1.60;;;;;;;;;;5035678;28;20454;-61
2021/05/21 09:24:02;;;;;;;4.80;1.60;;;;;;;;;;5036073;28;20443;-59
2021/05/21 09:26:39;;;;;;;3.10;1.50;;;;;;;;;;5035511;28;20547;-59
2021/05/21 09:29:07;;;;;;;2.90;1.47;;;;;;;;;;5036045;28;20472;-60
2021/05/21 09:31:42;;;;;;;4.13;1.53;;;;;;;;;;5035895;28;20490;-60
2021/05/21 09:34:09;;;;;;;1.90;1.07;;;;;;;;;;5035643;28;20929;-61
2021/05/21 09:36:36;;;;;;;2.70;1.40;;;;;;;;;;5035373;28;20517;-61
2021/05/21 09:39:05;;;;;;;4.90;1.70;;;;;;;;;;5035585;28;20856;-61
2021/05/21 09:41:43;;;;;;;3.03;1.20;;;;;;;;;;5035216;28;20477;-60
2021/05/21 09:44:11;;;;;;;2.80;1.30;;;;;;;;;;5035587;28;20436;-60
2021/05/21 09:46:38;;;;;;;4.20;1.30;;;;;;;;;;5035496;28;20483;-60
2021/05/21 09:49:20;;;;;;;2.27;1.20;;;;;;;;;;5035409;28;20589;-61
2021/05/21 09:51:51;;;;;;;3.10;1.30;;;;;;;;;;5034879;28;20823;-61
2021/05/21 09:54:17;;;;;;;2.80;1.50;;;;;;;;;;5035254;28;20434;-61
2021/05/21 09:56:59;;;;;;;2.97;1.27;;;;;;;;;;5035275;28;20452;-61
2021/05/21 09:59:38;;;;;;;2.30;1.33;;;;;;;;;;5035134;28;20471;-61
2021/05/21 10:02:18;;;;;;;2.10;1.47;;;;;;;;;;5035147;28;20534;-61
2021/05/21 10:04:45;;;;;;;3.93;1.23;;;;;;;;;;5034877;28;20428;-60
2021/05/21 10:07:12;;;;;;;2.03;1.17;;;;;;;;;;5035086;28;20535;-61
2021/05/21 10:09:39;;;;;;;3.60;1.40;;;;;;;;;;5035018;28;20469;-61
2021/05/21 10:12:07;;;;;;;3.03;1.30;;;;;;;;;;5034959;28;20821;-61
2021/05/21 10:14:34;;;;;;;3.57;1.43;;;;;;;;;;5034786;28;20545;-59
2021/05/21 10:17:02;;;;;;;4.33;1.30;;;;;;;;;;5034683;28;20451;-60
2021/05/21 10:19:29;;;;;;;2.03;0.90;;;;;;;;;;5034788;28;20467;-59
2021/05/21 10:21:56;;;;;;;3.80;1.43;;;;;;;;;;5034564;28;20458;-60
2021/05/21 10:24:23;;;;;;;3.07;1.20;;;;;;;;;;5034876;28;20447;-60
2021/05/21 10:26:52;;;;;;;3.63;1.23;;;;;;;;;;5035179;28;20481;-61
2021/05/21 10:29:21;;;;;;;3.87;1.50;;;;;;;;;;5035290;28;20877;-61
2021/05/21 10:31:50;;;;;;;4.57;1.40;;;;;;;;;;5034579;28;20454;-60
2021/05/21 10:34:18;;;;;;;2.67;1.50;;;;;;;;;;5034428;28;20455;-60
2021/05/21 10:36:45;;;;;;;4.10;1.23;;;;;;;;;;5034195;28;20469;-60
2021/05/21 10:39:15;;;;;;;2.40;1.80;;;;;;;;;;5034175;28;20976;-62
2021/05/21 10:41:50;;;;;;;3.73;1.43;;;;;;;;;;5034739;28;20448;-60
2021/05/21 10:44:20;;;;;;;4.13;1.20;;;;;;;;;;5034431;28;20460;-61
2021/05/21 10:46:48;;;;;;;3.20;1.13;;;;;;;;;;5034334;28;20485;-61
2021/05/21 10:49:25;;;;;;;2.70;1.30;;;;;;;;;;5034043;28;21023;-60
2021/05/21 10:51:52;;;;;;;3.87;1.30;;;;;;;;;;5034317;28;20475;-61
2021/05/21 10:54:34;;;;;;;2.40;1.00;;;;;;;;;;5034075;28;20448;-59
2021/05/21 10:57:11;;;;;;;4.20;1.70;;;;;;;;;;5033701;28;20451;-60
2021/05/21 10:59:41;;;;;;;2.27;1.20;;;;;;;;;;5033564;28;20987;-59
2021/05/21 11:02:08;;;;;;;3.13;1.30;;;;;;;;;;5033842;28;20463;-60
2021/05/21 11:04:36;;;;;;;4.33;1.50;;;;;;;;;;5033812;28;20543;-61
2021/05/21 11:07:04;;;;;;;4.00;1.40;;;;;;;;;;5033307;28;20491;-61
2021/05/21 11:09:31;;;;;;;3.80;1.20;;;;;;;;;;5033687;28;20474;-60
2021/05/21 11:12:03;;;;;;;1.93;1.10;;;;;;;;;;5033886;28;20453;-60
2021/05/21 11:14:49;;;;;;;3.10;1.10;;;;;;;;;;5033520;28;20440;-60
2021/05/21 11:17:17;;;;;;;3.80;1.90;;;;;;;;;;5033097;28;20427;-60
2021/05/21 11:19:49;;;;;;;5.13;1.77;;;;;;;;;;5033187;28;20479;-60
2021/05/21 11:22:22;;;;;;;3.53;1.23;;;;;;;;;;5033524;28;20447;-60
2021/05/21 11:24:51;;;;;;;4.57;2.40;;;;;;;;;;5033577;28;20446;-61
2021/05/21 11:27:18;;;;;;;3.00;1.63;;;;;;;;;;5033380;28;20585;-60
2021/05/21 11:29:46;;;;;;;3.27;1.20;;;;;;;;;;5033214;28;20536;-60
2021/05/21 11:32:14;;;;;;;3.30;1.40;;;;;;;;;;5033485;28;20458;-60
2021/05/21 11:34:41;;;;;;;4.70;1.30;;;;;;;;;;5033446;28;20451;-61
2021/05/21 11:37:08;;;;;;;7.50;2.07;;;;;;;;;;5033242;28;20565;-61
2021/05/21 11:39:37;;;;;;;9.60;2.30;;;;;;;;;;5033351;28;20465;-61
2021/05/21 11:42:05;;;;;;;5.03;2.17;;;;;;;;;;5033165;28;20497;-61
2021/05/21 11:44:32;;;;;;;5.10;2.13;;;;;;;;;;5032906;28;20999;-60
2021/05/21 11:46:59;;;;;;;4.67;2.10;;;;;;;;;;5033219;28;20476;-60
2021/05/21 11:49:26;;;;;;;7.23;2.80;;;;;;;;;;5033291;28;20464;-61
2021/05/21 11:51:54;;;;;;;5.00;2.10;;;;;;;;;;5033269;28;20505;-61
2021/05/21 11:54:21;;;;;;;4.20;2.20;;;;;;;;;;5033844;28;20521;-60
2021/05/21 11:56:48;;;;;;;6.50;2.40;;;;;;;;;;5033681;28;20451;-60
2021/05/21 12:01:44;;;;;;;7.23;2.90;;;;;;;;;;5051444;28;20475;-59
2021/05/21 12:04:11;;;;;;;4.33;2.03;;;;;;;;;;5052831;28;20445;-57
2021/05/21 12:06:39;;;;;;;4.43;2.20;;;;;;;;;;5052186;28;20454;-57
2021/05/21 12:09:07;;;;;;;3.97;2.47;;;;;;;;;;5052464;28;20482;-58
2021/05/21 12:11:34;;;;;;;9.27;2.50;;;;;;;;;;5052581;28;20463;-58
2021/05/21 12:14:01;;;;;;;6.17;2.50;;;;;;;;;;5052753;28;20791;-58
2021/05/21 12:16:30;;;;;;;6.00;2.53;;;;;;;;;;5052523;28;20456;-58
2021/05/21 12:18:57;;;;;;;3.63;1.73;;;;;;;;;;5052543;28;20447;-58
2021/05/21 12:21:24;;;;;;;5.60;2.17;;;;;;;;;;5052549;28;20554;-58
2021/05/21 12:23:52;;;;;;;5.50;2.70;;;;;;;;;;5052684;28;20456;-58
2021/05/21 12:26:19;;;;;;;7.10;2.40;;;;;;;;;;5052585;28;20452;-59
2021/05/21 12:28:47;;;;;;;7.93;2.57;;;;;;;;;;5063925;28;20586;-59
2021/05/21 12:31:14;;;;;;;5.40;3.07;;;;;;;;;;5075933;28;20466;-59
2021/05/21 12:33:41;;;;;;;5.20;2.10;;;;;;;;;;5070889;28;20451;-59
2021/05/21 12:36:11;;;;;;;6.90;2.60;;;;;;;;;;5058803;28;20455;-58
2021/05/21 12:38:38;;;;;;;3.43;2.00;;;;;;;;;;5057103;28;20512;-59
2021/05/21 12:41:04;;;;;;;7.27;2.83;;;;;;;;;;5056624;28;20491;-58
2021/05/21 12:43:32;;;;;;;3.27;1.90;;;;;;;;;;5056475;28;20918;-58
2021/05/21 12:46:06;;;;;;;5.50;2.00;;;;;;;;;;5056527;28;20453;-57
2021/05/21 12:48:37;;;;;;;4.97;2.10;;;;;;;;;;5056254;28;20464;-58
2021/05/21 12:51:14;;;;;;;5.53;2.23;;;;;;;;;;5056222;28;20468;-58
2021/05/21 12:53:41;;;;;;;3.73;1.80;;;;;;;;;;5056225;28;20808;-58
2021/05/21 12:56:08;;;;;;;6.50;2.03;;;;;;;;;;5057030;28;20869;-60
2021/05/21 12:58:41;;;;;;;4.23;1.60;;;;;;;;;;5056268;28;20480;-57
2021/05/21 13:01:09;;;;;;;5.53;1.70;;;;;;;;;;5055161;28;20514;-58
2021/05/21 13:03:50;;;;;;;3.40;1.37;;;;;;;;;;5056170;28;20446;-57
2021/05/21 13:06:25;;;;;;;5.40;2.27;;;;;;;;;;5053895;28;20502;-58
2021/05/21 13:08:51;;;;;;;3.90;1.80;;;;;;;;;;5055964;28;20482;-57
2021/05/21 13:11:18;;;;;;;4.63;1.53;;;;;;;;;;5056817;28;20474;-57
2021/05/21 13:13:45;;;;;;;6.13;1.60;;;;;;;;;;5055748;28;20454;-58
2021/05/21 13:16:13;;;;;;;5.33;1.70;;;;;;;;;;5055417;28;20481;-56
2021/05/21 13:18:40;;;;;;;5.00;1.20;;;;;;;;;;5055577;28;20446;-58
2021/05/21 13:21:07;;;;;;;6.90;1.70;;;;;;;;;;5055101;28;20565;-58
2021/05/21 13:23:34;;;;;;;3.43;1.47;;;;;;;;;;5055784;28;20444;-58
2021/05/21 13:26:04;;;;;;;6.90;1.70;;;;;;;;;;5056325;28;20845;-57
2021/05/21 13:28:38;;;;;;;4.50;1.63;;;;;;;;;;5055748;28;20475;-59
2021/05/21 13:31:05;;;;;;;7.40;1.57;;;;;;;;;;5055735;28;20573;-59
2021/05/21 13:33:33;;;;;;;5.43;1.40;;;;;;;;;;5056270;28;20455;-59
2021/05/21 13:36:00;;;;;;;5.03;1.53;;;;;;;;;;5055412;28;20451;-59
2021/05/21 13:38:27;;;;;;;5.60;2.00;;;;;;;;;;5055209;28;20493;-59
2021/05/21 13:40:54;;;;;;;5.93;1.70;;;;;;;;;;5054900;28;20791;-58
2021/05/21 13:43:22;;;;;;;6.40;1.87;;;;;;;;;;5055198;28;20451;-58
2021/05/21 13:45:49;;;;;;;4.90;1.40;;;;;;;;;;5055499;28;20489;-59
2021/05/21 13:48:16;;;;;;;5.80;1.70;;;;;;;;;;5054787;28;20554;-59
2021/05/21 13:50:45;;;;;;;7.30;2.10;;;;;;;;;;5055018;28;20467;-59
2021/05/21 13:53:12;;;;;;;5.10;1.30;;;;;;;;;;5054904;28;20443;-59
2021/05/21 13:55:40;;;;;;;4.50;1.50;;;;;;;;;;5055104;28;20449;-59
2021/05/21 13:58:07;;;;;;;4.40;1.53;;;;;;;;;;5055134;28;20447;-59
2021/05/21 14:00:34;;;;;;;4.83;1.47;;;;;;;;;;5054751;28;20478;-59
2021/05/21 14:03:01;;;;;;;6.03;1.93;;;;;;;;;;5055036;28;20448;-59
2021/05/21 14:05:27;;;;;;;8.77;1.60;;;;;;;;;;5054706;28;20927;-59
2021/05/21 14:07:55;;;;;;;3.67;1.60;;;;;;;;;;5054742;28;20483;-59
2021/05/21 14:10:22;;;;;;;5.17;1.40;;;;;;;;;;5054759;28;20480;-59
2021/05/21 14:12:49;;;;;;;5.50;1.30;;;;;;;;;;5054517;28;20451;-60
2021/05/21 14:15:16;;;;;;;5.40;1.50;;;;;;;;;;5054275;28;20452;-59
2021/05/21 14:17:43;;;;;;;5.83;1.50;;;;;;;;;;5054338;28;20439;-59
2021/05/21 14:20:11;;;;;;;7.83;1.70;;;;;;;;;;5054302;28;20534;-59
2021/05/21 14:22:40;;;;;;;5.43;1.67;;;;;;;;;;5053994;28;20467;-58
2021/05/21 14:25:09;;;;;;;6.53;1.50;;;;;;;;;;5054291;28;20798;-58
2021/05/21 14:27:37;;;;;;;5.10;2.03;;;;;;;;;;5054389;28;20816;-58
2021/05/21 14:30:04;;;;;;;3.63;1.70;;;;;;;;;;5054334;28;20466;-58
2021/05/21 14:32:31;;;;;;;7.30;2.07;;;;;;;;;;5054336;28;20451;-58
2021/05/21 14:34:58;;;;;;;6.40;1.83;;;;;;;;;;5053792;28;20521;-58
2021/05/21 14:37:25;;;;;;;5.23;1.83;;;;;;;;;;5053509;28;20930;-58
2021/05/21 14:39:52;;;;;;;2.87;1.20;;;;;;;;;;5053810;28;20983;-58
2021/05/21 14:42:19;;;;;;;5.27;1.83;;;;;;;;;;5053756;28;20441;-58
2021/05/21 14:44:46;;;;;;;6.87;1.50;;;;;;;;;;5054089;28;20804;-58
2021/05/21 14:47:14;;;;;;;4.97;1.87;;;;;;;;;;5053700;28;20475;-57
2021/05/21 14:49:41;;;;;;;6.20;2.00;;;;;;;;;;5053560;28;20464;-57
2021/05/21 14:52:07;;;;;;;5.50;1.80;;;;;;;;;;5052745;28;20959;-57
2021/05/21 14:54:34;;;;;;;6.23;2.27;;;;;;;;;;5053218;28;20792;-58